Latest Weather Observations for Cloncurry

IDQ60801

Issued at 3:32 pm EST Thursday 28 January 2021 (issued every 10 minutes, with the page automatically refreshed every 10 minutes)

About weather observations | Map of weather stations | Latest weather observations for QLD | Other Formats
Station Details ID: 029141 Name: CLONCURRY AIRPORT Lat: -20.67 Lon: 140.50 Height: 186.0 m
Data from the previous 72 hours. | See also: Recent months at Cloncurry
Date/Time
EST
Temp
°C
App
Temp
°C
Dew
Point
°C
Rel
Hum
%
Delta-T
°C
Wind Press
QNH
hPa
Press
MSL
hPa
Rain since
9am
mm
Dir  Spd
km/h
Gust
km/h
Spd
kts
Gust
kts
28/03:30pm 37.7 37.0 15.5 27 14.2 ESE 13 24 7 13 1001.8 1000.4 0.0
28/03:00pm 37.8 35.8 15.6 27 14.2 NE 20 26 11 14 1002.1 1000.7 0.0
28/02:30pm 37.2 35.8 15.6 27 13.8 ENE 17 28 9 15 1002.8 1001.3 0.0
28/02:00pm 37.3 35.6 15.7 27 13.8 ESE 19 30 10 16 1003.1 1001.6 0.0
28/01:30pm 36.3 36.4 17.4 32 12.3 NNW 13 28 7 15 1003.5 1002.0 0.0
28/01:00pm 35.7 36.1 16.4 31 12.4 S 9 22 5 12 1003.8 1002.3 0.0
28/12:30pm 35.7 36.0 17.9 35 11.6 NE 13 20 7 11 1004.3 1002.8 0.0
28/12:00pm 34.3 34.4 19.1 40 10.1 N 17 24 9 13 1004.7 1003.2 0.0
28/11:30am 33.9 34.2 19.6 43 9.5 NNE 17 28 9 15 1005.0 1003.5 0.0
28/11:00am 34.1 35.3 21.5 47 8.6 N 17 28 9 15 1005.2 1003.7 0.0
28/10:30am 33.3 33.4 21.1 48 8.3 N 22 33 12 18 1005.5 1004.0 0.0
28/10:00am 31.9 32.5 21.4 53 7.1 NNW 20 30 11 16 1005.6 1004.1 0.0
28/09:30am 31.0 31.4 21.8 58 6.3 N 22 28 12 15 1005.7 1004.2 0.0
28/09:00am 31.3 31.8 22.0 57 6.4 NNW 22 30 12 16 1005.7 1004.2 0.0
28/08:30am 30.2 30.8 22.1 62 5.5 N 22 30 12 16 1005.6 1004.1 0.0
28/08:00am 29.6 30.2 22.1 64 5.1 N 22 32 12 17 1005.4 1003.9 0.0
28/07:30am 28.8 29.5 21.6 65 4.9 N 20 30 11 16 1005.3 1003.8 0.0
28/07:00am 28.1 28.7 21.1 65 4.7 N 19 26 10 14 1005.0 1003.5 0.0
28/06:30am 27.8 28.3 20.9 66 4.6 N 19 24 10 13 1004.6 1003.1 0.0
28/06:00am 27.9 28.3 20.7 65 4.8 N 19 24 10 13 1004.5 1003.0 0.0
28/05:30am 28.4 27.9 19.9 60 5.6 N 22 26 12 14 1004.2 1002.7 0.0
28/05:00am 29.2 29.2 19.8 57 6.2 NNE 19 26 10 14 1003.8 1002.3 0.0
28/04:30am 29.3 31.4 21.0 61 5.6 N 11 13 6 7 1003.2 1001.7 0.0
28/04:00am 28.8 32.4 22.3 68 4.4 N 7 9 4 5 1003.0 1001.5 0.0
28/03:30am 28.7 32.5 22.4 68 4.3 NNE 6 9 3 5 1003.0 1001.5 0.0
28/03:00am 28.6 34.2 23.5 74 3.5 CALM 0 0 0 0 1002.7 1001.2 0.0
28/02:30am 28.4 33.6 22.9 72 3.8 CALM 0 0 0 0 1002.7 1001.2 0.0
28/02:00am 28.5 33.5 22.5 70 4.1 CALM 0 4 0 2 1002.7 1001.2 0.0
28/01:30am 29.0 32.3 22.5 68 4.4 S 9 11 5 6 1002.5 1001.0 0.0
28/01:00am 29.4 32.1 22.1 65 5.0 S 11 13 6 7 1002.7 1001.2 0.0
28/12:30am 29.7 32.4 22.2 64 5.1 SSW 11 13 6 7 1002.8 1001.3 0.0
28/12:00am 29.9 33.6 22.6 65 5.0 W 7 7 4 4 1002.9 1001.4 0.0
 
Date/Time
EST
Temp
°C
App
Temp
°C
Dew
Point
°C
Rel
Hum
%
Delta-T
°C
Wind Press
QNH
hPa
Press
MSL
hPa
Rain since
9am
mm
Dir  Spd
km/h
Gust
km/h
Spd
kts
Gust
kts
27/11:30pm 29.8 33.0 21.7 61 5.5 WNW 7 9 4 5 1002.8 1001.3 0.0
27/11:00pm 30.1 33.3 21.7 60 5.7 NW 7 11 4 6 1003.0 1001.5 0.0
27/10:30pm 30.1 33.4 22.5 63 5.2 NNW 9 11 5 6 1003.0 1001.5 0.0
27/10:00pm 30.7 34.2 21.8 59 6.1 NNW 6 7 3 4 1002.9 1001.4 0.0
27/09:30pm 30.9 33.8 21.1 56 6.6 NE 7 13 4 7 1002.7 1001.2 0.0
27/09:00pm 32.3 35.3 21.2 52 7.5 ENE 7 9 4 5 1002.5 1001.0 0.0
27/08:30pm 32.8 36.3 20.3 47 8.4 ENE 2 7 1 4 1002.2 1000.8 0.0
27/08:00pm 33.5 35.7 19.6 44 9.3 ENE 7 9 4 5 1001.9 1000.5 0.0
27/07:30pm 34.1 34.7 18.6 40 10.2 ENE 13 15 7 8 1001.6 1000.2 0.0
27/07:00pm 34.6 35.0 19.0 39 10.4 E 15 19 8 10 1001.7 1000.3 0.0
27/06:30pm 34.4 34.0 18.0 37 10.7 ENE 17 20 9 11 1001.6 1000.2 0.0
27/06:00pm 34.3 32.7 17.5 36 10.9 ENE 22 30 12 16 1001.3 999.8 0.0
27/05:30pm 33.5 33.2 20.3 46 8.9 NE 22 28 12 15 1001.1 999.6 0.0
27/05:00pm 34.4 32.0 19.2 40 10.1 NE 30 44 16 24 1000.8 999.3 0.0
27/04:30pm 38.6 38.6 18.9 31 13.2 SE 17 37 9 20 1000.7 999.2 0.0
27/04:00pm 37.7 39.2 17.7 31 13.2 SE 6 17 3 9 1000.9 999.4 0.0
27/03:30pm 36.6 38.0 17.7 32 12.4 SE 7 13 4 7 1001.3 999.8 0.0
27/03:00pm 36.6 36.4 17.7 32 12.4 SW 15 20 8 11 1001.7 1000.3 0.0
27/02:30pm 36.7 37.1 17.3 31 12.6 SSE 11 17 6 9 1002.0 1000.6 0.0
27/02:00pm 36.3 37.1 17.4 32 12.3 SW 9 15 5 8 1002.7 1001.2 0.0
27/01:30pm 36.1 38.7 20.4 40 10.6 SW 7 17 4 9 1003.3 1001.8 0.0
27/01:00pm 35.2 36.6 19.6 40 10.5 WSW 11 17 6 9 1003.8 1002.3 0.0
27/12:30pm 34.6 36.9 21.3 46 9.1 NW 11 19 6 10 1004.2 1002.7 0.0
27/12:00pm 34.4 37.3 21.8 48 8.7 SSW 9 15 5 8 1004.6 1003.1 0.0
27/11:30am 33.8 35.9 20.9 46 8.7 NNE 11 17 6 9 1005.0 1003.5 0.0
27/11:00am 32.9 35.1 21.1 50 8.0 WNW 11 17 6 9 1005.2 1003.7 0.0
27/10:30am 32.4 34.3 20.6 49 7.9 W 11 17 6 9 1005.6 1004.1 0.0
27/10:00am 31.4 33.4 21.6 56 6.7 WNW 13 17 7 9 1005.9 1004.4 0.0
27/09:30am 30.5 32.6 21.0 57 6.4 NNW 11 15 6 8 1005.9 1004.4 0.0
27/09:00am 29.6 32.1 21.8 63 5.3 N 11 15 6 8 1006.0 1004.5 6.2
27/08:30am 28.2 30.9 22.2 70 4.1 N 11 15 6 8 1005.8 1004.3 6.2
27/08:00am 27.3 29.8 22.5 75 3.3 N 13 17 7 9 1005.7 1004.2 6.2
27/07:30am 26.1 31.5 23.2 84 2.0 CALM 0 0 0 0 1005.4 1003.9 6.2
27/07:00am 25.6 30.7 22.7 84 2.0 CALM 0 0 0 0 1005.0 1003.5 6.2
27/06:30am 25.5 29.5 22.8 85 1.8 N 6 9 3 5 1004.4 1002.9 6.2
27/06:00am 25.4 29.5 23.3 88 1.4 N 7 7 4 4 1003.8 1002.3 6.2
27/05:30am 25.7 29.8 23.2 86 1.7 N 7 9 4 5 1003.2 1001.7 6.2
27/05:00am 25.9 31.5 23.6 87 1.6 CALM 0 0 0 0 1003.0 1001.5 6.2
27/04:30am 25.4 30.8 23.3 88 1.4 CALM 0 0 0 0 1002.9 1001.4 6.2
27/04:00am 25.4 30.5 22.7 85 1.8 CALM 0 0 0 0 1002.5 1001.0 6.2
27/03:30am 26.0 31.6 23.5 86 1.7 CALM 0 0 0 0 1002.1 1000.7 6.2
27/03:00am 25.7 31.0 23.0 85 1.8 CALM 0 0 0 0 1002.1 1000.7 6.2
27/02:30am 25.7 31.3 23.6 88 1.4 CALM 0 0 0 0 1002.0 1000.6 6.2
27/02:00am 25.5 30.9 23.2 87 1.6 CALM 0 0 0 0 1002.1 1000.7 6.2
27/01:30am 25.6 29.8 23.1 86 1.7 N 6 11 3 6 1002.2 1000.8 6.2
27/01:00am 25.6 29.3 22.5 83 2.1 NNW 7 20 4 11 1002.1 1000.7 6.2
27/12:30am 25.5 29.3 22.8 85 1.8 SSW 7 9 4 5 1002.2 1000.8 6.2
27/12:00am 25.8 28.7 22.5 82 2.2 SSW 11 15 6 8 1002.4 1000.9 6.2
 
Date/Time
EST
Temp
°C
App
Temp
°C
Dew
Point
°C
Rel
Hum
%
Delta-T
°C
Wind Press
QNH
hPa
Press
MSL
hPa
Rain since
9am
mm
Dir  Spd
km/h
Gust
km/h
Spd
kts
Gust
kts
26/11:30pm 26.1 29.8 23.2 84 2.0 S 9 11 5 6 1002.5 1001.0 6.2
26/11:00pm 26.2 31.9 23.7 86 1.7 CALM 0 0 0 0 1002.6 1001.1 6.2
26/10:30pm 26.0 29.2 23.1 84 2.0 S 11 15 6 8 1002.4 1000.9 6.2
26/10:00pm 26.1 29.6 22.8 82 2.3 WSW 9 11 5 6 1002.2 1000.8 6.2
26/09:30pm 25.8 29.5 23.3 86 1.7 SW 9 11 5 6 1002.9 1001.4 6.0
26/09:00pm 25.0 28.7 22.3 85 1.8 S 6 7 3 4 1003.5 1002.0 6.0
26/08:30pm 25.2 26.4 21.5 80 2.5 SSE 17 22 9 12 1003.5 1002.0 4.8
26/08:00pm 25.1 25.6 21.2 79 2.6 SSW 20 28 11 15 1003.4 1001.9 4.6
26/07:42pm 24.9 24.1 21.6 82 2.2 S 28 41 15 22 1003.5 1002.0 3.6
26/07:30pm 24.4 21.8 20.7 80 2.4 S 35 44 19 24 1003.7 1002.2 1.8
26/07:10pm 25.6 22.4 21.7 79 2.6 SSE 41 61 22 33 1004.0 1002.5 1.4
26/07:02pm 25.4 23.7 21.7 80 2.5 SSE 33 61 18 33 1004.0 1002.5 0.8
26/07:00pm 24.9 22.7 21.4 81 2.3 SSE 35 48 19 26 1004.2 1002.7 0.8
26/06:50pm 25.7 23.1 20.7 74 3.3 SSE 35 56 19 30 1004.1 1002.6 0.2
26/06:42pm 28.1 27.7 20.9 65 4.8 S 24 46 13 25 1004.0 1002.5 0.0
26/06:30pm 27.3 28.3 21.8 72 3.7 WSW 19 26 10 14 1002.2 1000.8 0.0
26/06:00pm 27.6 28.1 20.9 67 4.5 W 19 28 10 15 1001.5 1000.1 0.0
26/05:30pm 29.9 29.2 20.2 56 6.4 SSW 24 32 13 17 1001.1 999.6 0.0
26/05:00pm 29.4 24.0 17.9 50 7.4 SSW 43 57 23 31 1001.5 1000.1 0.0
26/04:50pm 30.2 27.1 17.6 46 8.1 S 30 69 16 37 1001.4 1000.0 0.0
26/04:45pm 31.5 31.1 18.1 44 8.7 NE 17 46 9 25 1001.7 1000.3 0.0
26/04:30pm 35.3 33.4 16.6 33 12.0 NNE 22 30 12 16 1000.6 999.1 0.0
26/04:00pm 35.2 32.6 17.9 36 11.3 NE 28 37 15 20 1000.1 998.6 0.0
26/03:30pm 35.9 33.0 18.9 36 11.3 NE 32 39 17 21 1000.5 999.0 0.0
26/03:23pm 35.3 32.9 19.2 38 10.7 NE 30 39 16 21 1000.6 999.1 0.0
26/03:13pm 35.3 32.7 19.6 39 10.5 NE 32 39 17 21 1000.6 999.1 0.0
26/03:00pm 36.4 33.6 19.4 37 11.4 NE 33 44 18 24 1000.6 999.1 0.0
26/02:58pm 35.6 32.6 19.1 38 11.0 NE 33 44 18 24 1000.6 999.1 0.0
26/02:30pm 36.9 36.4 17.0 31 12.9 NE 15 26 8 14 1001.1 999.6 0.0
26/02:00pm 37.4 37.7 17.9 31 12.9 NW 13 28 7 15 1001.4 1000.0 0.0
26/01:30pm 36.6 35.3 16.7 30 12.8 NNW 19 26 10 14 1002.1 1000.7 0.0
26/01:00pm 36.7 37.3 18.7 34 12.0 NNE 13 22 7 12 1002.7 1001.2 0.0
26/12:30pm 35.8 36.1 17.9 34 11.7 NE 13 22 7 12 1003.1 1001.6 0.0
26/12:00pm 35.6 36.0 18.2 35 11.5 NNE 13 20 7 11 1003.6 1002.1 0.0
26/11:30am 34.7 35.9 18.3 38 10.8 NNW 9 20 5 11 1004.0 1002.5 0.0
26/11:00am 34.6 34.5 17.8 37 11.0 N 15 22 8 12 1004.4 1002.9 0.0
26/10:30am 34.5 34.5 18.1 37 10.7 NE 15 24 8 13 1004.6 1003.1 0.0
26/10:00am 34.3 35.8 18.8 40 10.2 NNW 9 20 5 11 1004.8 1003.3 0.0
26/09:30am 33.0 34.4 18.7 42 9.4 NW 9 15 5 8 1004.9 1003.4 0.0
26/09:00am 32.3 33.2 19.2 46 8.7 N 13 17 7 9 1004.9 1003.4 0.0
26/08:30am 30.9 31.8 19.3 50 7.6 NNW 13 17 7 9 1004.9 1003.4 0.0
26/08:00am 30.5 31.7 19.8 52 7.1 N 13 15 7 8 1004.8 1003.3 0.0
26/07:30am 30.3 31.2 19.3 51 7.2 N 13 15 7 8 1004.6 1003.1 0.0
26/07:00am 30.5 31.0 19.2 51 7.4 N 15 20 8 11 1004.3 1002.8 0.0
26/06:30am 30.5 31.2 18.9 50 7.6 N 13 15 7 8 1003.4 1001.9 0.0
26/06:00am 30.5 31.2 18.9 50 7.6 N 13 17 7 9 1002.9 1001.4 0.0
26/05:30am 30.5 31.2 18.9 50 7.6 NNW 13 15 7 8 1002.6 1001.1 0.0
26/05:00am 30.0 32.5 19.1 52 7.2 S 4 11 2 6 1002.5 1001.0 0.0
26/04:30am 30.7 33.2 19.1 50 7.6 S 4 6 2 3 1002.7 1001.2 0.0
26/04:00am 31.0 32.0 18.7 48 8.1 S 11 13 6 7 1002.6 1001.1 0.0
26/03:30am 31.3 33.6 18.6 46 8.3 N 4 11 2 6 1002.8 1001.3 0.0
26/03:00am 31.7 33.3 18.3 45 8.7 N 7 11 4 6 1003.0 1001.5 0.0
26/02:38am 31.4 33.4 18.7 46 8.3 W 6 7 3 4 1003.0 1001.5 0.0
26/02:30am 31.4 33.4 18.7 46 8.3 W 6 7 3 4 1003.0 1001.5 0.0
26/02:00am 31.7 32.9 18.3 45 8.7 SSW 9 13 5 7 1003.0 1001.5 0.0
26/01:55am 31.4 33.1 18.4 46 8.5 SSW 7 11 4 6 1003.0 1001.5 0.0
26/01:30am 32.0 33.6 18.2 43 9.0 SW 7 11 4 6 1003.2 1001.7 0.0
26/01:00am 31.8 33.3 18.0 43 9.0 NW 7 9 4 5 1003.5 1002.0 0.0
26/12:30am 32.0 32.7 17.9 43 9.1 NW 11 15 6 8 1003.5 1002.0 0.0
26/12:00am 32.3 32.1 17.7 41 9.5 N 15 20 8 11 1003.7 1002.2 0.0
 
Date/Time
EST
Temp
°C
App
Temp
°C
Dew
Point
°C
Rel
Hum
%
Delta-T
°C
Wind Press
QNH
hPa
Press
MSL
hPa
Rain since
9am
mm
Dir  Spd
km/h
Gust
km/h
Spd
kts
Gust
kts
25/11:30pm 32.6 32.0 17.6 40 9.7 N 17 24 9 13 1003.8 1002.3 0.0
25/11:00pm 32.9 31.6 16.7 38 10.4 N 19 24 10 13 1004.0 1002.5 0.0
25/10:30pm 33.2 31.5 15.7 35 11.0 N 19 26 10 14 1004.0 1002.5 0.0
25/10:00pm 33.9 32.6 14.9 32 11.9 N 15 22 8 12 1003.7 1002.2 0.0
25/09:30pm 33.9 33.2 15.4 33 11.6 N 13 17 7 9 1003.2 1001.7 0.0
25/09:00pm 34.3 33.5 15.2 31 12.0 N 13 17 7 9 1002.8 1001.3 0.0
25/08:30pm 34.6 34.3 15.5 32 12.0 N 11 13 6 7 1002.7 1001.2 0.0
25/08:00pm 35.0 33.9 15.3 30 12.4 N 15 20 8 11 1002.2 1000.8 0.0
25/07:30pm 35.4 33.9 15.2 30 12.7 NNE 17 20 9 11 1002.0 1000.6 0.0
25/07:00pm 35.6 34.3 15.9 31 12.6 NE 17 22 9 12 1001.8 1000.4 0.0
25/06:30pm 36.8 35.1 14.7 26 13.9 NNE 17 24 9 13 1001.8 1000.4 0.0
25/06:00pm 36.7 35.3 14.6 26 13.9 N 15 20 8 11 1001.6 1000.2 0.0
25/05:30pm 36.8 34.7 14.7 26 13.9 N 19 24 10 13 1001.4 1000.0 0.0
25/05:00pm 37.2 36.7 13.9 25 14.5 ESE 9 13 5 7 1001.4 1000.0 0.0
25/04:30pm 37.2 36.9 13.3 24 14.7 S 7 13 4 7 1001.7 1000.3 0.0
25/04:00pm 37.7 37.5 13.7 24 15.0 E 7 13 4 7 1001.9 1000.5 0.0

Other formats

Comma delimited format used in spreadsheet applications
http://www.bom.gov.au/fwo/IDQ60801/IDQ60801.94335.axf

JavaScript Object Notation format (JSON) in row-major order
http://www.bom.gov.au/fwo/IDQ60801/IDQ60801.94335.json

Data quality

Most of these data are generated automatically and are frequently updated. Quality checks on data are not normally performed. It is possible for incorrect values to appear. Refer to information at About Latest Weather Observations and please check the disclaimer before using these data.